Iraero AN24 at Novosibirsk on Mar 15th 2015, tail strike on landing

Last Update: March 16, 2015 / 17:54:02 GMT/Zulu time

Bookmark this article
Incident Facts

Date of incident
Mar 15, 2015

Classification
Accident

Airline
IrAero

Flight number
IO-171

Aircraft Registration
RA-47805

Aircraft Type
Antonov An-24

ICAO Type Designator
AN24

Airport ICAO Code
UNNT

An Iraero Antonov AN-24, registration RA-47805 performing flight IO-171 from Krasnojarsk to Novosibirsk (Russia) with 28 passengers and 5 crew, struck its tail onto the runway while landing in Novosibirsk at 12:21L (06:21Z) and rolled out without further incident. There were no injuries, the aircraft received substantial damage.

West Siberia's Transport Prosecution Office have opened an investigation into the accident reporting the aircraft made a hard landing, during which its tail contacted the runway surface. There were no injuries.

Metars:
UNNT 150830Z 22006MPS 9999 BKN060CB M02/M05 Q1014 25810160 16490150 NOSIG RMK QFE750/1001
UNNT 150800Z 22006MPS 9999 BKN060CB M02/M06 Q1014 25810160 16490150 NOSIG RMK QFE751/1001
UNNT 150730Z 22007MPS 9999 -SHSN BKN052CB M02/M06 Q1014 25810160 16490150 NOSIG RMK QFE751/1001
UNNT 150700Z 21006MPS 9999 BKN060CB M03/M07 Q1015 25810155 16490150 NOSIG RMK QFE751/1001
UNNT 150630Z 21006MPS 9000 -SHSN OVC048CB M03/M07 Q1015 25810155 16490150 NOSIG RMK QFE751/1002
UNNT 150600Z 22005MPS 9999 -SHSN OVC056CB M03/M08 Q1015 25810155 16490150 NOSIG RMK QFE751/1002
UNNT 150530Z 22005MPS 9000 OVC056CB M03/M09 Q1015 25810155 16490150 NOSIG RMK QFE751/1002
UNNT 150500Z 22006MPS CAVOK M04/M09 Q1015 25810155 16490150 NOSIG RMK QFE751/1002
UNNT 150430Z 21005MPS CAVOK M04/M09 Q1015 25810155 16490150 NOSIG RMK QFE751/1002
UNNT 150400Z 22005MPS 9999 BKN042 M04/M10 Q1016 25810155 16490150 NOSIG RMK QFE752/1002
UNNT 150330Z 21005MPS CAVOK M05/M10 Q1016 25810155 16490150 NOSIG RMK QFE752/1002
Aircraft Registration Data
Registration mark
RA-47805
Country of Registration
Russia
Date of Registration
Pjieqlijfkemqkk Subscribe to unlock
Certification Basis
Manufacturer
Aircraft Model / Type
An-24RV
ICAO Aircraft Type
AN24
Serial Number
Engine Count
Incident Facts

Date of incident
Mar 15, 2015

Classification
Accident

Airline
IrAero

Flight number
IO-171

Aircraft Registration
RA-47805

Aircraft Type
Antonov An-24

ICAO Type Designator
AN24

Airport ICAO Code
UNNT

This article is published under license from Avherald.com. © of text by Avherald.com.
Article source

You can read 2 more free articles without a subscription.

Subscribe now and continue reading without any limits!

Are you a subscriber? Login
Subscribe

Read unlimited articles and receive our daily update briefing. Gain better insights into what is happening in commercial aviation safety.

Free newsletter

Want to know more and stay ahead? Get our free weekly newsletter and join 5461 existing subscribers.

By subscribing, you accept our terms and conditions and confirm that you've read our privacy policy.

Send tip

Support AeroInside by sending a small tip amount.

Related articles

Newest articles

Subscribe today

Are you researching aviation incidents? Get access to AeroInside Insights, unlimited read access and receive the daily newsletter.

Pick your plan and subscribe

Partner

Blockaviation logo

A new way to document and demonstrate airworthiness compliance and aircraft value. Find out more.

Virtual Speech logo

ELITE Simulation Solutions is a leading global provider of Flight Simulation Training Devices, IFR training software as well as flight controls and related services. Find out more.

Get updates

Never miss an article from AeroInside. Subscribe to our free weekly newsletter and join 5461 existing subscribers.

By subscribing, you accept our terms and conditions and that you've read our privacy policy.

AeroInside Blog
Popular aircraft
Airbus A320
Boeing 737-800
Boeing 737-800 MAX
Popular airlines
American Airlines
United
Delta
Air Canada
Lufthansa
British Airways